sensor_id;sensor_type;location;lat;lon;timestamp;pressure;altitude;pressure_sealevel;temperature;humidity
74524;BME280;63074;44.696;10.358;2023-06-14T00:01:59;99272.63;;;24.80;100.00
74524;BME280;63074;44.696;10.358;2023-06-14T00:04:26;99291.53;;;24.81;100.00
74524;BME280;63074;44.696;10.358;2023-06-14T00:06:52;99275.63;;;24.63;100.00
74524;BME280;63074;44.696;10.358;2023-06-14T00:09:18;99291.41;;;24.78;100.00
74524;BME280;63074;44.696;10.358;2023-06-14T00:11:45;99279.97;;;24.76;100.00
74524;BME280;63074;44.696;10.358;2023-06-14T00:14:11;99302.25;;;24.99;100.00
74524;BME280;63074;44.696;10.358;2023-06-14T00:16:37;99280.03;;;24.15;100.00
74524;BME280;63074;44.696;10.358;2023-06-14T00:19:04;99247.53;;;23.68;100.00
74524;BME280;63074;44.696;10.358;2023-06-14T00:21:31;99267.56;;;24.17;100.00
74524;BME280;63074;44.696;10.358;2023-06-14T00:24:00;99226.88;;;23.59;100.00
74524;BME280;63074;44.696;10.358;2023-06-14T00:26:26;99238.63;;;23.71;100.00
74524;BME280;63074;44.696;10.358;2023-06-14T00:28:56;99279.13;;;24.35;100.00
74524;BME280;63074;44.696;10.358;2023-06-14T00:31:23;99272.97;;;24.26;100.00
74524;BME280;63074;44.696;10.358;2023-06-14T00:33:49;99231.44;;;23.79;100.00
74524;BME280;63074;44.696;10.358;2023-06-14T00:36:15;99262.66;;;24.35;100.00
74524;BME280;63074;44.696;10.358;2023-06-14T00:38:41;99259.22;;;24.50;100.00
74524;BME280;63074;44.696;10.358;2023-06-14T00:41:07;99228.72;;;23.79;100.00
74524;BME280;63074;44.696;10.358;2023-06-14T00:43:33;99240.47;;;24.16;100.00
74524;BME280;63074;44.696;10.358;2023-06-14T00:46:00;99230.97;;;24.01;100.00
74524;BME280;63074;44.696;10.358;2023-06-14T00:48:28;99231.00;;;23.77;100.00
74524;BME280;63074;44.696;10.358;2023-06-14T00:50:55;99192.75;;;22.78;100.00
74524;BME280;63074;44.696;10.358;2023-06-14T00:53:21;99227.22;;;24.06;100.00
74524;BME280;63074;44.696;10.358;2023-06-14T00:55:49;99248.81;;;24.19;100.00
74524;BME280;63074;44.696;10.358;2023-06-14T00:58:15;99249.41;;;24.13;100.00
74524;BME280;63074;44.696;10.358;2023-06-14T01:00:42;99251.69;;;24.11;100.00
74524;BME280;63074;44.696;10.358;2023-06-14T01:03:08;99229.22;;;23.36;100.00
74524;BME280;63074;44.696;10.358;2023-06-14T01:05:39;99187.38;;;22.61;100.00
74524;BME280;63074;44.696;10.358;2023-06-14T01:08:28;99175.84;;;22.34;100.00
74524;BME280;63074;44.696;10.358;2023-06-14T01:11:05;99167.59;;;22.43;100.00
74524;BME280;63074;44.696;10.358;2023-06-14T01:13:35;99222.06;;;23.68;100.00
74524;BME280;63074;44.696;10.358;2023-06-14T01:16:02;99243.00;;;23.60;100.00
74524;BME280;63074;44.696;10.358;2023-06-14T01:18:29;99208.94;;;23.04;100.00
74524;BME280;63074;44.696;10.358;2023-06-14T01:20:55;99226.28;;;23.53;100.00
74524;BME280;63074;44.696;10.358;2023-06-14T01:23:23;99228.03;;;23.82;100.00
74524;BME280;63074;44.696;10.358;2023-06-14T01:25:50;99257.97;;;24.23;100.00
74524;BME280;63074;44.696;10.358;2023-06-14T01:28:20;99274.31;;;24.32;100.00
74524;BME280;63074;44.696;10.358;2023-06-14T01:30:54;99277.97;;;24.48;100.00
74524;BME280;63074;44.696;10.358;2023-06-14T01:33:25;99289.75;;;24.49;100.00
74524;BME280;63074;44.696;10.358;2023-06-14T01:35:53;99263.00;;;24.46;100.00
74524;BME280;63074;44.696;10.358;2023-06-14T01:38:23;99265.69;;;24.58;100.00
74524;BME280;63074;44.696;10.358;2023-06-14T01:40:50;99291.09;;;25.35;100.00
74524;BME280;63074;44.696;10.358;2023-06-14T01:43:18;99263.22;;;24.04;100.00
74524;BME280;63074;44.696;10.358;2023-06-14T01:45:47;99238.41;;;24.01;100.00
74524;BME280;63074;44.696;10.358;2023-06-14T01:48:14;99233.03;;;23.68;100.00
74524;BME280;63074;44.696;10.358;2023-06-14T01:50:40;99266.59;;;24.62;100.00
74524;BME280;63074;44.696;10.358;2023-06-14T01:53:08;99217.97;;;23.62;100.00
74524;BME280;63074;44.696;10.358;2023-06-14T01:55:35;99201.84;;;23.03;100.00
74524;BME280;63074;44.696;10.358;2023-06-14T01:58:04;99178.50;;;22.84;100.00
74524;BME280;63074;44.696;10.358;2023-06-14T02:00:30;99161.56;;;23.03;100.00
74524;BME280;63074;44.696;10.358;2023-06-14T02:02:56;99186.16;;;23.36;100.00
74524;BME280;63074;44.696;10.358;2023-06-14T02:05:23;99171.53;;;22.87;100.00
74524;BME280;63074;44.696;10.358;2023-06-14T02:07:50;99178.03;;;23.28;100.00
74524;BME280;63074;44.696;10.358;2023-06-14T02:10:16;99205.41;;;23.85;100.00
74524;BME280;63074;44.696;10.358;2023-06-14T02:12:43;99239.66;;;24.40;100.00
74524;BME280;63074;44.696;10.358;2023-06-14T02:15:10;99236.94;;;23.79;100.00
74524;BME280;63074;44.696;10.358;2023-06-14T02:17:43;99205.16;;;23.53;100.00
74524;BME280;63074;44.696;10.358;2023-06-14T02:20:09;99196.59;;;23.67;100.00
74524;BME280;63074;44.696;10.358;2023-06-14T02:22:36;99236.72;;;23.84;100.00
74524;BME280;63074;44.696;10.358;2023-06-14T02:25:02;99214.94;;;23.30;100.00
74524;BME280;63074;44.696;10.358;2023-06-14T02:27:29;99211.69;;;23.61;100.00
74524;BME280;63074;44.696;10.358;2023-06-14T02:29:55;99221.50;;;23.74;100.00
74524;BME280;63074;44.696;10.358;2023-06-14T02:32:21;99207.25;;;23.23;100.00
74524;BME280;63074;44.696;10.358;2023-06-14T02:34:47;99201.81;;;23.36;100.00
74524;BME280;63074;44.696;10.358;2023-06-14T02:37:16;99195.22;;;23.04;100.00
74524;BME280;63074;44.696;10.358;2023-06-14T02:39:42;99184.91;;;22.68;100.00
74524;BME280;63074;44.696;10.358;2023-06-14T02:42:08;99157.41;;;22.64;100.00
74524;BME280;63074;44.696;10.358;2023-06-14T02:44:34;99176.03;;;22.71;100.00
74524;BME280;63074;44.696;10.358;2023-06-14T02:47:02;99181.22;;;23.30;100.00
74524;BME280;63074;44.696;10.358;2023-06-14T02:49:28;99200.25;;;23.59;100.00
74524;BME280;63074;44.696;10.358;2023-06-14T02:51:55;99200.94;;;23.56;100.00
74524;BME280;63074;44.696;10.358;2023-06-14T02:54:21;99199.63;;;23.41;100.00
74524;BME280;63074;44.696;10.358;2023-06-14T02:56:48;99195.19;;;23.37;100.00
74524;BME280;63074;44.696;10.358;2023-06-14T02:59:14;99158.09;;;22.40;100.00
74524;BME280;63074;44.696;10.358;2023-06-14T03:01:41;99177.09;;;23.23;100.00
74524;BME280;63074;44.696;10.358;2023-06-14T03:04:10;99206.25;;;23.40;100.00
74524;BME280;63074;44.696;10.358;2023-06-14T03:06:36;99204.63;;;23.39;100.00
74524;BME280;63074;44.696;10.358;2023-06-14T03:09:03;99235.91;;;23.59;100.00
74524;BME280;63074;44.696;10.358;2023-06-14T03:11:35;99181.25;;;22.64;100.00
74524;BME280;63074;44.696;10.358;2023-06-14T03:14:01;99175.00;;;22.96;100.00
74524;BME280;63074;44.696;10.358;2023-06-14T03:16:30;99197.81;;;23.33;100.00
74524;BME280;63074;44.696;10.358;2023-06-14T03:18:57;99177.00;;;22.33;100.00
74524;BME280;63074;44.696;10.358;2023-06-14T03:21:23;99175.84;;;22.34;100.00
74524;BME280;63074;44.696;10.358;2023-06-14T03:23:50;99166.53;;;22.14;100.00
74524;BME280;63074;44.696;10.358;2023-06-14T03:26:17;99186.19;;;22.70;100.00
74524;BME280;63074;44.696;10.358;2023-06-14T03:28:47;99174.06;;;22.38;100.00
74524;BME280;63074;44.696;10.358;2023-06-14T03:31:14;99171.53;;;22.12;100.00
74524;BME280;63074;44.696;10.358;2023-06-14T03:33:42;99170.88;;;22.69;100.00
74524;BME280;63074;44.696;10.358;2023-06-14T03:36:08;99161.91;;;22.48;100.00
74524;BME280;63074;44.696;10.358;2023-06-14T03:38:35;99166.09;;;22.04;100.00
74524;BME280;63074;44.696;10.358;2023-06-14T03:41:01;99150.41;;;21.63;100.00
74524;BME280;63074;44.696;10.358;2023-06-14T03:43:27;99151.06;;;21.60;100.00
74524;BME280;63074;44.696;10.358;2023-06-14T03:45:55;99188.44;;;22.68;100.00
74524;BME280;63074;44.696;10.358;2023-06-14T03:48:22;99184.25;;;22.08;100.00
74524;BME280;63074;44.696;10.358;2023-06-14T03:50:48;99178.47;;;22.10;100.00
74524;BME280;63074;44.696;10.358;2023-06-14T03:53:14;99181.03;;;22.69;100.00
74524;BME280;63074;44.696;10.358;2023-06-14T03:55:41;99171.53;;;22.12;100.00
74524;BME280;63074;44.696;10.358;2023-06-14T03:58:07;99177.00;;;22.12;100.00
74524;BME280;63074;44.696;10.358;2023-06-14T04:00:33;99173.59;;;22.15;100.00
74524;BME280;63074;44.696;10.358;2023-06-14T04:03:00;99180.47;;;22.42;100.00
74524;BME280;63074;44.696;10.358;2023-06-14T04:05:26;99204.50;;;22.78;100.00
74524;BME280;63074;44.696;10.358;2023-06-14T04:07:52;99194.69;;;22.15;100.00
74524;BME280;63074;44.696;10.358;2023-06-14T04:10:22;99174.94;;;22.51;100.00
74524;BME280;63074;44.696;10.358;2023-06-14T04:12:48;99200.66;;;22.71;100.00
74524;BME280;63074;44.696;10.358;2023-06-14T04:15:15;99237.63;;;23.18;100.00
74524;BME280;63074;44.696;10.358;2023-06-14T04:17:41;99224.47;;;23.12;100.00
74524;BME280;63074;44.696;10.358;2023-06-14T04:20:07;99229.59;;;23.01;100.00
74524;BME280;63074;44.696;10.358;2023-06-14T04:22:35;99234.00;;;22.94;100.00
74524;BME280;63074;44.696;10.358;2023-06-14T04:25:02;99204.28;;;22.63;100.00
74524;BME280;63074;44.696;10.358;2023-06-14T04:27:29;99214.44;;;23.16;100.00
74524;BME280;63074;44.696;10.358;2023-06-14T04:29:57;99242.94;;;23.03;100.00
74524;BME280;63074;44.696;10.358;2023-06-14T04:32:27;99266.44;;;23.94;100.00
74524;BME280;63074;44.696;10.358;2023-06-14T04:34:58;99253.03;;;23.56;100.00
74524;BME280;63074;44.696;10.358;2023-06-14T04:37:25;99218.19;;;22.78;100.00
74524;BME280;63074;44.696;10.358;2023-06-14T04:39:56;99228.69;;;23.09;100.00
74524;BME280;63074;44.696;10.358;2023-06-14T04:42:23;99235.72;;;23.31;100.00
74524;BME280;63074;44.696;10.358;2023-06-14T04:44:51;99232.19;;;23.31;100.00
74524;BME280;63074;44.696;10.358;2023-06-14T04:47:22;99246.44;;;23.24;100.00
74524;BME280;63074;44.696;10.358;2023-06-14T04:49:48;99242.22;;;23.27;100.00
74524;BME280;63074;44.696;10.358;2023-06-14T04:52:16;99215.63;;;22.73;100.00
74524;BME280;63074;44.696;10.358;2023-06-14T04:54:43;99229.84;;;23.08;100.00
74524;BME280;63074;44.696;10.358;2023-06-14T04:57:10;99264.81;;;24.05;100.00
74524;BME280;63074;44.696;10.358;2023-06-14T04:59:40;99301.84;;;24.72;100.00
74524;BME280;63074;44.696;10.358;2023-06-14T05:02:06;99281.06;;;24.22;100.00
74524;BME280;63074;44.696;10.358;2023-06-14T05:04:33;99275.69;;;24.14;100.00
74524;BME280;63074;44.696;10.358;2023-06-14T05:06:59;99262.66;;;23.74;100.00
74524;BME280;63074;44.696;10.358;2023-06-14T05:09:27;99291.19;;;24.71;100.00
74524;BME280;63074;44.696;10.358;2023-06-14T05:11:53;99326.94;;;25.67;100.00
74524;BME280;63074;44.696;10.358;2023-06-14T05:14:19;99280.84;;;24.40;100.00
74524;BME280;63074;44.696;10.358;2023-06-14T05:16:45;99296.34;;;24.72;100.00
74524;BME280;63074;44.696;10.358;2023-06-14T05:19:12;99283.00;;;24.10;100.00
74524;BME280;63074;44.696;10.358;2023-06-14T05:21:38;99273.41;;;24.28;100.00
74524;BME280;63074;44.696;10.358;2023-06-14T05:24:05;99293.06;;;24.95;100.00
74524;BME280;63074;44.696;10.358;2023-06-14T05:26:31;99319.63;;;25.31;100.00
74524;BME280;63074;44.696;10.358;2023-06-14T05:28:58;99278.78;;;24.49;100.00
74524;BME280;63074;44.696;10.358;2023-06-14T05:31:26;99294.75;;;24.71;100.00
74524;BME280;63074;44.696;10.358;2023-06-14T05:33:54;99292.56;;;24.77;100.00
74524;BME280;63074;44.696;10.358;2023-06-14T05:36:21;99319.13;;;25.41;100.00
74524;BME280;63074;44.696;10.358;2023-06-14T05:38:47;99327.41;;;25.56;100.00
74524;BME280;63074;44.696;10.358;2023-06-14T05:41:13;99319.84;;;25.38;100.00
74524;BME280;63074;44.696;10.358;2023-06-14T05:43:40;99334.88;;;27.01;100.00
74524;BME280;63074;44.696;10.358;2023-06-14T05:46:06;99364.81;;;26.68;100.00
74524;BME280;63074;44.696;10.358;2023-06-14T05:48:32;99299.13;;;26.19;100.00
74524;BME280;63074;44.696;10.358;2023-06-14T05:50:59;99321.75;;;26.28;100.00
74524;BME280;63074;44.696;10.358;2023-06-14T05:53:26;99286.16;;;26.04;100.00
74524;BME280;63074;44.696;10.358;2023-06-14T05:55:52;99267.78;;;26.23;100.00
74524;BME280;63074;44.696;10.358;2023-06-14T05:58:21;99313.63;;;26.16;100.00
74524;BME280;63074;44.696;10.358;2023-06-14T06:00:47;99337.19;;;26.99;100.00
74524;BME280;63074;44.696;10.358;2023-06-14T06:03:14;99360.25;;;27.49;100.00
74524;BME280;63074;44.696;10.358;2023-06-14T06:05:40;99338.59;;;26.74;100.00
74524;BME280;63074;44.696;10.358;2023-06-14T06:08:06;99374.66;;;27.39;100.00
74524;BME280;63074;44.696;10.358;2023-06-14T06:10:32;99374.72;;;27.23;100.00
74524;BME280;63074;44.696;10.358;2023-06-14T06:12:59;99349.00;;;26.65;100.00
74524;BME280;63074;44.696;10.358;2023-06-14T06:15:25;99265.31;;;26.03;100.00
74524;BME280;63074;44.696;10.358;2023-06-14T06:17:51;99322.59;;;26.99;100.00
74524;BME280;63074;44.696;10.358;2023-06-14T06:20:17;99304.19;;;26.48;100.00
74524;BME280;63074;44.696;10.358;2023-06-14T06:22:44;99309.66;;;26.83;100.00
74524;BME280;63074;44.696;10.358;2023-06-14T06:25:10;99322.16;;;27.16;100.00
74524;BME280;63074;44.696;10.358;2023-06-14T06:27:36;99274.00;;;26.05;100.00
74524;BME280;63074;44.696;10.358;2023-06-14T06:30:06;99322.59;;;27.37;100.00
74524;BME280;63074;44.696;10.358;2023-06-14T06:32:33;99365.44;;;27.31;100.00
74524;BME280;63074;44.696;10.358;2023-06-14T06:34:59;99283.34;;;25.84;100.00
74524;BME280;63074;44.696;10.358;2023-06-14T06:37:26;99286.88;;;26.01;100.00
74524;BME280;63074;44.696;10.358;2023-06-14T06:39:52;99309.47;;;25.90;100.00
74524;BME280;63074;44.696;10.358;2023-06-14T06:42:18;99303.09;;;25.58;100.00
74524;BME280;63074;44.696;10.358;2023-06-14T06:44:44;99370.19;;;27.15;100.00
74524;BME280;63074;44.696;10.358;2023-06-14T06:47:10;99370.28;;;26.99;100.00
74524;BME280;63074;44.696;10.358;2023-06-14T06:49:37;99409.34;;;27.40;100.00
74524;BME280;63074;44.696;10.358;2023-06-14T06:52:06;99370.94;;;27.31;100.00
74524;BME280;63074;44.696;10.358;2023-06-14T06:54:33;99424.22;;;28.16;100.00
74524;BME280;63074;44.696;10.358;2023-06-14T06:57:00;99410.63;;;27.07;100.00
74524;BME280;63074;44.696;10.358;2023-06-14T06:59:27;99371.00;;;25.98;100.00
74524;BME280;63074;44.696;10.358;2023-06-14T07:01:53;99332.25;;;25.47;100.00
74524;BME280;63074;44.696;10.358;2023-06-14T07:04:20;99333.88;;;25.92;100.00
74524;BME280;63074;44.696;10.358;2023-06-14T07:06:46;99282.09;;;25.22;100.00
74524;BME280;63074;44.696;10.358;2023-06-14T07:09:13;99288.13;;;25.28;100.00
74524;BME280;63074;44.696;10.358;2023-06-14T07:11:40;99286.53;;;25.27;100.00
74524;BME280;63074;44.696;10.358;2023-06-14T07:14:07;99289.41;;;25.03;100.00
74524;BME280;63074;44.696;10.358;2023-06-14T07:16:33;99309.34;;;25.28;100.00
74524;BME280;63074;44.696;10.358;2023-06-14T07:19:01;99326.97;;;26.65;100.00
74524;BME280;63074;44.696;10.358;2023-06-14T07:21:28;99352.22;;;26.86;100.00
74524;BME280;63074;44.696;10.358;2023-06-14T07:23:54;99396.13;;;27.30;100.00
74524;BME280;63074;44.696;10.358;2023-06-14T07:26:21;99342.47;;;26.38;100.00
74524;BME280;63074;44.696;10.358;2023-06-14T07:28:48;99352.44;;;26.42;100.00
74524;BME280;63074;44.696;10.358;2023-06-14T07:31:18;99366.78;;;27.21;100.00
74524;BME280;63074;44.696;10.358;2023-06-14T07:33:45;99396.25;;;27.75;100.00
74524;BME280;63074;44.696;10.358;2023-06-14T07:36:11;99434.66;;;28.22;100.00
74524;BME280;63074;44.696;10.358;2023-06-14T07:38:37;99445.38;;;28.50;100.00
74524;BME280;63074;44.696;10.358;2023-06-14T07:41:04;99487.13;;;28.68;100.00
74524;BME280;63074;44.696;10.358;2023-06-14T07:43:30;99463.63;;;28.13;100.00
74524;BME280;63074;44.696;10.358;2023-06-14T07:45:56;99428.91;;;27.70;100.00
74524;BME280;63074;44.696;10.358;2023-06-14T07:48:23;99361.34;;;26.71;100.00
74524;BME280;63074;44.696;10.358;2023-06-14T07:50:49;99411.44;;;27.46;100.00
74524;BME280;63074;44.696;10.358;2023-06-14T07:53:15;99434.47;;;27.73;100.00
74524;BME280;63074;44.696;10.358;2023-06-14T07:55:41;99401.06;;;27.40;100.00
74524;BME280;63074;44.696;10.358;2023-06-14T07:58:09;99462.13;;;28.38;100.00
74524;BME280;63074;44.696;10.358;2023-06-14T08:00:36;99479.16;;;28.40;100.00
74524;BME280;63074;44.696;10.358;2023-06-14T08:03:03;99479.91;;;28.18;100.00
74524;BME280;63074;44.696;10.358;2023-06-14T08:05:30;99480.41;;;28.69;100.00
74524;BME280;63074;44.696;10.358;2023-06-14T08:07:56;99463.09;;;28.95;100.00
74524;BME280;63074;44.696;10.358;2023-06-14T08:10:23;99503.81;;;29.24;98.77
74524;BME280;63074;44.696;10.358;2023-06-14T08:12:49;99507.25;;;28.04;100.00
74524;BME280;63074;44.696;10.358;2023-06-14T08:15:18;99438.53;;;26.55;100.00
74524;BME280;63074;44.696;10.358;2023-06-14T08:17:45;99459.88;;;27.44;100.00
74524;BME280;63074;44.696;10.358;2023-06-14T08:20:12;99426.50;;;26.79;100.00
74524;BME280;63074;44.696;10.358;2023-06-14T08:22:39;99428.13;;;28.34;100.00
74524;BME280;63074;44.696;10.358;2023-06-14T08:25:08;99475.31;;;26.63;100.00
74524;BME280;63074;44.696;10.358;2023-06-14T08:27:35;99381.22;;;26.96;100.00
74524;BME280;63074;44.696;10.358;2023-06-14T08:30:02;99493.50;;;29.21;100.00
74524;BME280;63074;44.696;10.358;2023-06-14T08:32:29;99538.50;;;30.38;95.25
74524;BME280;63074;44.696;10.358;2023-06-14T08:34:55;99500.03;;;28.18;100.00
74524;BME280;63074;44.696;10.358;2023-06-14T08:37:21;99537.22;;;30.66;93.68
74524;BME280;63074;44.696;10.358;2023-06-14T08:39:47;99589.44;;;29.14;93.30
74524;BME280;63074;44.696;10.358;2023-06-14T08:42:14;99529.69;;;28.64;97.98
74524;BME280;63074;44.696;10.358;2023-06-14T08:44:41;99559.91;;;29.21;100.00
74524;BME280;63074;44.696;10.358;2023-06-14T08:47:08;99515.72;;;29.55;98.78
74524;BME280;63074;44.696;10.358;2023-06-14T08:49:37;99514.03;;;29.47;99.28
74524;BME280;63074;44.696;10.358;2023-06-14T08:52:05;99563.94;;;28.17;97.32
74524;BME280;63074;44.696;10.358;2023-06-14T08:54:34;99484.09;;;27.70;100.00
74524;BME280;63074;44.696;10.358;2023-06-14T08:57:11;99495.19;;;27.73;100.00
74524;BME280;63074;44.696;10.358;2023-06-14T08:59:44;99530.25;;;28.96;96.94
74524;BME280;63074;44.696;10.358;2023-06-14T09:02:11;99553.56;;;29.44;97.22
74524;BME280;63074;44.696;10.358;2023-06-14T09:04:39;99532.06;;;29.37;98.53
74524;BME280;63074;44.696;10.358;2023-06-14T09:07:06;99524.47;;;28.16;100.00
74524;BME280;63074;44.696;10.358;2023-06-14T09:09:32;99557.78;;;28.23;100.00
74524;BME280;63074;44.696;10.358;2023-06-14T09:12:00;99485.84;;;27.59;100.00
74524;BME280;63074;44.696;10.358;2023-06-14T09:14:26;99520.84;;;29.53;94.87
74524;BME280;63074;44.696;10.358;2023-06-14T09:16:55;99550.13;;;28.17;100.00
74524;BME280;63074;44.696;10.358;2023-06-14T09:19:25;99501.63;;;29.64;100.00
74524;BME280;63074;44.696;10.358;2023-06-14T09:21:52;99571.84;;;28.80;95.90
74524;BME280;63074;44.696;10.358;2023-06-14T09:24:19;99531.47;;;30.11;92.77
74524;BME280;63074;44.696;10.358;2023-06-14T09:26:48;99590.88;;;29.31;91.99
74524;BME280;63074;44.696;10.358;2023-06-14T09:29:17;99541.75;;;28.33;95.93
74524;BME280;63074;44.696;10.358;2023-06-14T09:31:46;99535.31;;;29.99;87.91
74524;BME280;63074;44.696;10.358;2023-06-14T09:34:12;99567.31;;;29.14;94.50
74524;BME280;63074;44.696;10.358;2023-06-14T09:36:40;99579.25;;;29.74;86.96
74524;BME280;63074;44.696;10.358;2023-06-14T09:39:08;99553.75;;;32.30;78.04
74524;BME280;63074;44.696;10.358;2023-06-14T09:41:37;99587.81;;;31.44;78.62
74524;BME280;63074;44.696;10.358;2023-06-14T09:44:05;99615.88;;;31.32;79.69
74524;BME280;63074;44.696;10.358;2023-06-14T09:46:33;99608.56;;;31.64;76.78
74524;BME280;63074;44.696;10.358;2023-06-14T09:49:01;99577.97;;;32.37;70.40
74524;BME280;63074;44.696;10.358;2023-06-14T09:51:28;99682.97;;;30.33;82.61
74524;BME280;63074;44.696;10.358;2023-06-14T09:54:00;99678.88;;;29.21;85.48
74524;BME280;63074;44.696;10.358;2023-06-14T09:56:37;99627.97;;;31.09;78.06
74524;BME280;63074;44.696;10.358;2023-06-14T09:59:07;99635.59;;;31.16;79.29
74524;BME280;63074;44.696;10.358;2023-06-14T10:01:39;99638.28;;;31.60;77.62
74524;BME280;63074;44.696;10.358;2023-06-14T10:04:07;99698.19;;;30.16;86.73
74524;BME280;63074;44.696;10.358;2023-06-14T10:06:37;99628.69;;;31.47;78.53
74524;BME280;63074;44.696;10.358;2023-06-14T10:09:09;99679.66;;;29.94;86.54
74524;BME280;63074;44.696;10.358;2023-06-14T10:11:36;99618.91;;;31.12;78.34
74524;BME280;63074;44.696;10.358;2023-06-14T10:14:04;99600.13;;;31.46;73.76
74524;BME280;63074;44.696;10.358;2023-06-14T10:16:56;99618.28;;;31.95;74.63
74524;BME280;63074;44.696;10.358;2023-06-14T10:19:45;99648.41;;;31.35;76.47
74524;BME280;63074;44.696;10.358;2023-06-14T10:22:32;99644.28;;;31.14;76.07
74524;BME280;63074;44.696;10.358;2023-06-14T10:25:01;99662.63;;;30.52;78.78
74524;BME280;63074;44.696;10.358;2023-06-14T10:27:27;99618.16;;;31.70;72.80
74524;BME280;63074;44.696;10.358;2023-06-14T10:32:21;99641.59;;;31.76;74.89
74524;BME280;63074;44.696;10.358;2023-06-14T10:37:23;99655.13;;;31.30;77.29
74524;BME280;63074;44.696;10.358;2023-06-14T10:39:51;99645.69;;;31.38;77.46
74524;BME280;63074;44.696;10.358;2023-06-14T10:42:17;99632.06;;;30.82;72.72
74524;BME280;63074;44.696;10.358;2023-06-14T10:47:33;99645.31;;;29.99;72.48
74524;BME280;63074;44.696;10.358;2023-06-14T10:50:07;99683.03;;;28.89;76.88
74524;BME280;63074;44.696;10.358;2023-06-14T10:52:43;99605.16;;;31.30;68.10
74524;BME280;63074;44.696;10.358;2023-06-14T10:55:16;99564.56;;;33.03;64.09
74524;BME280;63074;44.696;10.358;2023-06-14T10:57:46;99607.47;;;31.76;66.88
74524;BME280;63074;44.696;10.358;2023-06-14T11:00:13;99628.31;;;31.52;69.90
74524;BME280;63074;44.696;10.358;2023-06-14T11:03:29;99696.69;;;29.96;79.78
74524;BME280;63074;44.696;10.358;2023-06-14T11:11:06;99602.22;;;31.64;70.95
74524;BME280;63074;44.696;10.358;2023-06-14T11:13:33;99559.00;;;32.81;66.64
74524;BME280;63074;44.696;10.358;2023-06-14T11:16:00;99660.19;;;30.17;76.95
74524;BME280;63074;44.696;10.358;2023-06-14T11:18:28;99656.53;;;30.09;77.21
74524;BME280;63074;44.696;10.358;2023-06-14T11:20:54;99633.22;;;31.18;75.80
74524;BME280;63074;44.696;10.358;2023-06-14T11:23:22;99653.38;;;30.41;80.29
74524;BME280;63074;44.696;10.358;2023-06-14T11:25:52;99609.50;;;31.86;75.56
74524;BME280;63074;44.696;10.358;2023-06-14T11:28:18;99607.91;;;31.85;73.91
74524;BME280;63074;44.696;10.358;2023-06-14T11:30:59;99559.41;;;33.08;68.47
74524;BME280;63074;44.696;10.358;2023-06-14T11:33:25;99570.13;;;33.17;67.51
74524;BME280;63074;44.696;10.358;2023-06-14T11:35:52;99559.13;;;34.18;65.40
74524;BME280;63074;44.696;10.358;2023-06-14T11:38:18;99552.28;;;35.41;62.14
74524;BME280;63074;44.696;10.358;2023-06-14T11:40:45;99557.81;;;35.00;60.87
74524;BME280;63074;44.696;10.358;2023-06-14T11:43:11;99589.63;;;33.20;61.70
74524;BME280;63074;44.696;10.358;2023-06-14T11:45:39;99607.47;;;32.77;64.34
74524;BME280;63074;44.696;10.358;2023-06-14T11:48:06;99637.22;;;32.59;67.58
74524;BME280;63074;44.696;10.358;2023-06-14T11:50:33;99621.00;;;32.96;65.44
74524;BME280;63074;44.696;10.358;2023-06-14T11:53:03;99666.50;;;30.47;70.19
74524;BME280;63074;44.696;10.358;2023-06-14T11:55:36;99630.78;;;32.30;70.78
74524;BME280;63074;44.696;10.358;2023-06-14T11:58:03;99569.91;;;34.09;64.40
74524;BME280;63074;44.696;10.358;2023-06-14T12:00:29;99663.38;;;31.67;73.21
74524;BME280;63074;44.696;10.358;2023-06-14T12:02:56;99667.16;;;31.45;76.11
74524;BME280;63074;44.696;10.358;2023-06-14T12:05:23;99675.81;;;30.59;76.24
74524;BME280;63074;44.696;10.358;2023-06-14T12:07:50;99676.66;;;30.03;79.97
74524;BME280;63074;44.696;10.358;2023-06-14T12:10:19;99681.81;;;29.32;85.32
74524;BME280;63074;44.696;10.358;2023-06-14T12:12:46;99625.19;;;30.02;81.99
74524;BME280;63074;44.696;10.358;2023-06-14T12:15:12;99617.47;;;29.62;83.80
74524;BME280;63074;44.696;10.358;2023-06-14T12:17:38;99544.06;;;30.05;86.62
74524;BME280;63074;44.696;10.358;2023-06-14T12:20:13;99544.53;;;30.47;84.17
74524;BME280;63074;44.696;10.358;2023-06-14T12:23:02;99499.66;;;32.17;76.75
74524;BME280;63074;44.696;10.358;2023-06-14T12:25:36;99525.63;;;31.59;74.17
74524;BME280;63074;44.696;10.358;2023-06-14T12:28:07;99552.09;;;31.39;77.08
74524;BME280;63074;44.696;10.358;2023-06-14T12:30:34;99559.13;;;30.78;81.68
74524;BME280;63074;44.696;10.358;2023-06-14T12:33:05;99485.81;;;33.31;72.59
74524;BME280;63074;44.696;10.358;2023-06-14T12:35:32;99482.03;;;33.87;67.93
74524;BME280;63074;44.696;10.358;2023-06-14T12:37:58;99565.09;;;31.97;76.60
74524;BME280;63074;44.696;10.358;2023-06-14T12:40:24;99564.66;;;31.22;75.22
74524;BME280;63074;44.696;10.358;2023-06-14T12:42:50;99566.34;;;31.37;77.81
74524;BME280;63074;44.696;10.358;2023-06-14T12:45:16;99546.88;;;31.34;76.42
74524;BME280;63074;44.696;10.358;2023-06-14T12:47:43;99540.41;;;31.77;76.23
74524;BME280;63074;44.696;10.358;2023-06-14T12:50:09;99524.66;;;33.77;72.30
74524;BME280;63074;44.696;10.358;2023-06-14T12:52:35;99587.88;;;31.54;77.93
74524;BME280;63074;44.696;10.358;2023-06-14T12:55:03;99564.88;;;31.58;75.57
74524;BME280;63074;44.696;10.358;2023-06-14T12:57:29;99624.28;;;29.41;85.82
74524;BME280;63074;44.696;10.358;2023-06-14T12:59:56;99549.06;;;29.62;82.83